Airfield :







YOU CAN JOIN US ON...

 
LOGIN :

Register | Disclaimer

   EN    FR    IT 

 









Legend :    VFR   Marginal VFR   IFR   Intensive IFR   Very Intensive IFR
Visi :
Ceiling :
>= 8 km
>= 3000ft
5 to 8 km
1000 to 3000 ft
1500m to 5 km
500 to 1000 ft
800 to 1500m
200 to 500 ft
< 800m
< 200 ft
Symbols :   Thunderstorms  Fog  Heavy snow  Heavy precipitations  Wind > 20 kt






- Airport Elevation : 930 ft


KEFK - Newport State

CURRENT METAR :
  • 192341Z AUTO 17003KT 5SM DZ SCT045 OVC060 10/08 A3029 RMK AO2

EXPIRED METARs :
  • 192301Z AUTO 00000KT 7SM DZ SCT033 OVC045 10/08 A3029 RMK AO2
  • 192221Z AUTO 00000KT 7SM RA OVC031 10/09 A3029 RMK AO2
  • 192141Z AUTO 12003KT 7SM RA BKN033 OVC039 10/09 A3029 RMK AO2

TAF N/A
KZBW FIR / North America



MET'MAP, your aeronautical weather chart ! - Copyright ORBIFLY December 2007 - Disclaimer

ORBIFLY MET'MAP TEAM :

Programming & Development : Alexandra Zaïnal
Concept & original design : Baudouin d'Aumeries
Assistance for programming : Marc-Olivier Méhu
Technical & hardware support : Manuel Goepfert

Contact : metmap@orbifly.com




SOURCES & CREDITS :

   NOAA